Time;durP1;ratioP1;P1;durP2;ratioP2;P2;SDS_P1;SDS_P2;PMS_P1;PMS_P2;Temp;Humidity;BMP_temperature;BMP_pressure;BME280_temperature;BME280_humidity;BME280_pressure;Samples;Min_cycle;Max_cycle;Signal;HPM_P1;HPM_P2
2023/04/09 00:00:16;;;;;;;10.00;5.93;;;12.00;52.60;;;;;;5067819;28;20474;-87
2023/04/09 00:02:44;;;;;;;14.93;8.00;;;12.00;53.00;;;;;;5065606;28;20511;-89
2023/04/09 00:05:11;;;;;;;11.07;6.80;;;12.00;52.90;;;;;;5069853;28;20963;-86
2023/04/09 00:07:38;;;;;;;10.30;6.37;;;12.00;52.60;;;;;;5090251;28;20451;-88
2023/04/09 00:10:07;;;;;;;9.27;6.03;;;12.00;53.10;;;;;;5056515;28;21078;-89
2023/04/09 00:12:34;;;;;;;12.00;6.57;;;11.90;53.10;;;;;;5089337;28;20455;-86
2023/04/09 00:15:02;;;;;;;9.77;6.07;;;11.90;53.30;;;;;;5105156;27;20485;-88
2023/04/09 00:17:29;;;;;;;13.07;6.77;;;12.00;53.30;;;;;;5055349;27;20539;-86
2023/04/09 00:19:56;;;;;;;9.57;6.50;;;11.90;53.10;;;;;;5074150;28;20459;-88
2023/04/09 00:22:23;;;;;;;10.73;7.67;;;11.70;53.90;;;;;;5048285;28;20466;-88
2023/04/09 00:24:50;;;;;;;10.27;5.80;;;11.50;54.50;;;;;;5074079;28;21251;-85
2023/04/09 00:27:18;;;;;;;9.87;7.07;;;11.30;55.30;;;;;;5085683;28;20535;-87
2023/04/09 00:29:46;;;;;;;11.93;8.00;;;11.30;55.70;;;;;;5107081;27;20832;-88
2023/04/09 00:32:13;;;;;;;8.77;6.40;;;11.40;55.60;;;;;;5056886;28;20443;-87
2023/04/09 00:34:40;;;;;;;11.10;6.30;;;11.50;55.40;;;;;;5071361;28;20983;-88
2023/04/09 00:37:07;;;;;;;12.13;7.10;;;11.60;55.30;;;;;;5058274;28;20440;-88
2023/04/09 00:39:34;;;;;;;12.23;6.80;;;11.70;55.00;;;;;;5086558;28;20893;-88
2023/04/09 00:42:02;;;;;;;12.17;7.20;;;11.70;54.90;;;;;;5090993;28;20443;-89
2023/04/09 00:44:32;;;;;;;13.30;7.13;;;11.70;55.00;;;;;;5063120;28;20486;-86
2023/04/09 00:47:00;;;;;;;13.77;6.23;;;11.70;55.00;;;;;;5081098;28;20497;-89
2023/04/09 00:49:27;;;;;;;12.83;7.40;;;11.70;55.40;;;;;;5042077;28;20486;-87
2023/04/09 00:51:54;;;;;;;13.70;6.63;;;11.80;54.80;;;;;;5071130;28;20523;-87
2023/04/09 00:54:21;;;;;;;10.63;6.30;;;11.70;54.30;;;;;;5068985;28;20648;-88
2023/04/09 00:56:48;;;;;;;14.97;7.53;;;11.70;54.30;;;;;;5088029;28;20444;-85
2023/04/09 00:59:15;;;;;;;12.37;6.73;;;11.70;53.70;;;;;;5087697;28;20475;-88
2023/04/09 01:01:45;;;;;;;12.50;7.13;;;11.60;53.80;;;;;;5091893;28;20444;-88
2023/04/09 01:04:12;;;;;;;10.20;7.77;;;11.60;53.90;;;;;;5069995;28;20486;-87
2023/04/09 01:06:45;;;;;;;10.93;7.63;;;11.70;54.10;;;;;;5051805;28;20446;-86
2023/04/09 01:09:21;;;;;;;13.10;6.80;;;11.70;54.00;;;;;;5087402;28;20443;-87
2023/04/09 01:12:00;;;;;;;10.70;7.50;;;11.80;54.30;;;;;;5070392;28;20449;-87
2023/04/09 01:14:34;;;;;;;11.70;7.37;;;11.80;54.30;;;;;;5075270;28;20525;-87
2023/04/09 01:17:16;;;;;;;11.07;6.73;;;11.80;54.60;;;;;;5087899;28;20457;-86
2023/04/09 01:19:51;;;;;;;9.47;6.90;;;11.70;54.90;;;;;;5062216;28;20481;-88
2023/04/09 01:22:32;;;;;;;9.63;5.90;;;11.70;55.20;;;;;;5071086;28;20987;-88
2023/04/09 01:25:09;;;;;;;12.20;6.67;;;11.80;55.00;;;;;;5063549;28;21051;-87
2023/04/09 01:27:56;;;;;;;10.00;6.93;;;11.90;54.70;;;;;;5059316;28;20467;-86
2023/04/09 01:30:27;;;;;;;12.43;7.10;;;11.90;54.80;;;;;;5094480;28;20455;-86
2023/04/09 01:32:57;;;;;;;10.80;7.00;;;11.90;54.90;;;;;;5063528;28;20475;-88
2023/04/09 01:35:25;;;;;;;12.17;7.30;;;11.90;55.00;;;;;;5105626;27;20878;-86
2023/04/09 01:37:54;;;;;;;12.77;7.43;;;11.90;55.00;;;;;;5057409;28;20497;-88
2023/04/09 01:40:21;;;;;;;12.10;7.17;;;11.90;54.90;;;;;;5077675;28;20551;-87
2023/04/09 01:42:49;;;;;;;11.47;7.03;;;11.90;54.80;;;;;;5089288;28;20845;-86
2023/04/09 01:45:17;;;;;;;15.30;7.43;;;11.90;54.90;;;;;;5090460;28;20486;-86
2023/04/09 01:47:46;;;;;;;10.90;6.80;;;11.90;55.00;;;;;;5086390;28;20516;-86
2023/04/09 01:50:14;;;;;;;11.47;7.10;;;11.90;54.90;;;;;;5072057;28;20554;-89
2023/04/09 01:52:41;;;;;;;12.00;6.63;;;11.90;54.90;;;;;;5056979;28;20496;-86
2023/04/09 01:55:09;;;;;;;12.70;7.33;;;11.90;54.80;;;;;;5083227;28;20475;-87
2023/04/09 01:57:37;;;;;;;12.77;8.87;;;11.90;54.90;;;;;;5049155;28;20447;-87
2023/04/09 02:00:08;;;;;;;10.13;7.47;;;11.80;55.00;;;;;;5092258;28;20885;-88
2023/04/09 02:02:53;;;;;;;10.27;7.17;;;11.80;55.30;;;;;;5076048;28;20529;-89
2023/04/09 02:05:22;;;;;;;12.43;6.97;;;11.80;55.90;;;;;;5066556;28;20468;-87
2023/04/09 02:07:54;;;;;;;10.40;7.37;;;11.80;55.20;;;;;;5067322;28;20447;-86
2023/04/09 02:10:24;;;;;;;7.83;6.60;;;11.80;55.30;;;;;;5070192;28;20553;-87
2023/04/09 02:12:53;;;;;;;15.40;8.80;;;11.90;55.20;;;;;;5075262;28;20538;-86
2023/04/09 02:15:22;;;;;;;12.43;7.67;;;11.80;55.20;;;;;;5074133;28;20500;-88
2023/04/09 02:17:50;;;;;;;10.07;6.90;;;11.80;55.30;;;;;;5049632;28;20960;-88
2023/04/09 02:20:18;;;;;;;10.97;7.30;;;11.80;55.40;;;;;;5056465;28;20488;-84
2023/04/09 02:22:46;;;;;;;12.80;7.43;;;11.80;55.40;;;;;;5068505;28;20491;-89
2023/04/09 02:25:14;;;;;;;12.07;7.10;;;11.80;55.40;;;;;;5051119;28;20468;-85
2023/04/09 02:27:41;;;;;;;9.93;6.40;;;11.80;55.40;;;;;;5058880;28;20462;-88
2023/04/09 02:30:09;;;;;;;11.50;7.20;;;11.80;55.50;;;;;;5077698;28;20466;-87
2023/04/09 02:32:36;;;;;;;11.47;7.40;;;11.80;55.60;;;;;;5105241;27;20550;-87
2023/04/09 02:35:05;;;;;;;10.63;6.70;;;11.70;55.70;;;;;;5076193;28;20447;-86
2023/04/09 02:37:33;;;;;;;11.97;7.60;;;11.70;55.70;;;;;;5059823;28;20459;-88
2023/04/09 02:40:00;;;;;;;12.70;7.03;;;11.80;55.50;;;;;;5067421;28;20978;-88
2023/04/09 02:42:27;;;;;;;10.03;6.50;;;11.80;55.40;;;;;;5048770;28;20504;-88
2023/04/09 02:44:54;;;;;;;11.67;7.40;;;11.80;55.70;;;;;;5065498;28;20466;-86
2023/04/09 02:47:22;;;;;;;11.57;6.57;;;11.80;55.70;;;;;;5070397;28;20451;-88
2023/04/09 02:49:49;;;;;;;14.17;7.53;;;11.70;55.70;;;;;;5064930;28;20478;-85
2023/04/09 02:52:19;;;;;;;9.47;5.93;;;11.70;55.80;;;;;;5107355;27;20451;-86
2023/04/09 02:54:46;;;;;;;11.97;7.13;;;11.70;55.90;;;;;;5081777;28;20435;-87
2023/04/09 02:57:13;;;;;;;12.70;7.07;;;11.70;55.80;;;;;;5090887;27;20461;-88
2023/04/09 02:59:40;;;;;;;9.87;6.63;;;11.70;55.80;;;;;;5074569;27;20519;-88
2023/04/09 03:02:07;;;;;;;13.90;7.53;;;11.80;55.70;;;;;;5067776;28;20507;-88
2023/04/09 03:04:34;;;;;;;13.60;6.73;;;11.80;55.70;;;;;;5082856;28;20471;-86
2023/04/09 03:07:02;;;;;;;9.60;6.37;;;11.80;55.60;;;;;;5090361;28;20440;-86
2023/04/09 03:09:30;;;;;;;9.97;6.47;;;11.80;55.60;;;;;;5058462;28;20909;-87
2023/04/09 03:11:58;;;;;;;12.00;7.53;;;11.80;55.80;;;;;;5060856;28;20476;-86
2023/04/09 03:14:25;;;;;;;9.67;7.00;;;11.80;55.80;;;;;;5077913;28;20487;-87
2023/04/09 03:16:52;;;;;;;10.20;7.23;;;11.80;55.70;;;;;;5068469;28;20431;-87
2023/04/09 03:19:19;;;;;;;8.83;6.00;;;11.70;55.80;;;;;;5061585;28;20530;-86
2023/04/09 03:21:48;;;;;;;9.57;6.67;;;11.70;56.00;;;;;;5070618;28;20932;-88
2023/04/09 03:24:15;;;;;;;10.27;7.23;;;11.70;56.10;;;;;;5093589;28;20529;-88
2023/04/09 03:26:44;;;;;;;10.00;7.47;;;11.70;56.10;;;;;;5078134;28;20461;-88
2023/04/09 03:29:14;;;;;;;13.00;8.13;;;11.70;55.90;;;;;;5049284;28;20455;-87
2023/04/09 03:31:41;;;;;;;11.70;7.87;;;11.70;55.70;;;;;;5053344;28;20470;-86
2023/04/09 03:34:08;;;;;;;11.97;8.33;;;11.80;55.70;;;;;;5085642;28;20889;-88
2023/04/09 03:36:35;;;;;;;16.50;8.80;;;11.70;55.90;;;;;;5043806;28;20432;-86
2023/04/09 03:39:04;;;;;;;9.73;6.73;;;11.70;55.90;;;;;;5062368;28;20466;-86
2023/04/09 03:41:35;;;;;;;11.17;6.87;;;11.70;55.90;;;;;;5111013;27;20497;-85
2023/04/09 03:44:07;;;;;;;11.10;7.73;;;11.70;55.90;;;;;;5053535;28;21015;-87
2023/04/09 03:46:48;;;;;;;11.07;7.50;;;11.70;56.00;;;;;;5091712;28;20448;-87
2023/04/09 03:49:18;;;;;;;10.50;6.70;;;11.70;56.00;;;;;;5107333;27;20454;-87
2023/04/09 03:51:45;;;;;;;12.80;7.57;;;11.80;55.80;;;;;;5082533;28;20456;-87
2023/04/09 03:54:13;;;;;;;12.17;7.50;;;11.80;55.70;;;;;;5047270;28;20459;-86
2023/04/09 03:56:41;;;;;;;10.93;7.00;;;11.80;55.70;;;;;;5042418;28;20452;-85
2023/04/09 03:59:13;;;;;;;12.80;7.13;;;11.80;55.70;;;;;;5067949;28;20448;-87
2023/04/09 04:01:43;;;;;;;14.90;8.03;;;11.80;56.00;;;;;;5072972;28;20539;-85
2023/04/09 04:04:10;;;;;;;11.63;7.53;;;11.70;56.10;;;;;;5093320;27;20831;-86
2023/04/09 04:06:47;;;;;;;13.10;6.73;;;11.70;56.00;;;;;;5094518;28;20458;-87
2023/04/09 04:09:23;;;;;;;16.20;8.07;;;11.70;56.00;;;;;;5082037;28;21002;-88
2023/04/09 04:11:57;;;;;;;13.23;7.27;;;11.80;56.00;;;;;;5052622;28;20515;-88
2023/04/09 04:14:29;;;;;;;14.80;7.43;;;11.80;55.90;;;;;;5046518;28;20471;-85
2023/04/09 04:17:03;;;;;;;11.10;7.10;;;11.80;56.60;;;;;;5065619;28;20455;-87
2023/04/09 04:19:31;;;;;;;10.63;6.87;;;11.80;55.70;;;;;;5069056;27;20454;-88
2023/04/09 04:21:58;;;;;;;13.67;8.27;;;11.80;55.60;;;;;;5049103;28;20451;-88
2023/04/09 04:24:25;;;;;;;11.27;7.53;;;11.70;55.90;;;;;;5049205;27;20440;-85
2023/04/09 04:26:52;;;;;;;12.00;7.03;;;11.70;56.00;;;;;;5067902;28;20591;-87
2023/04/09 04:29:21;;;;;;;14.07;8.60;;;11.70;55.90;;;;;;5058837;27;21157;-87
2023/04/09 04:31:59;;;;;;;11.97;7.07;;;11.70;55.90;;;;;;5070183;28;20455;-88
2023/04/09 04:34:31;;;;;;;11.73;7.10;;;11.70;56.20;;;;;;5074784;28;20449;-88
2023/04/09 04:37:05;;;;;;;9.87;6.43;;;11.70;56.00;;;;;;5056907;28;20809;-87
2023/04/09 04:39:34;;;;;;;13.77;7.50;;;11.70;56.00;;;;;;5040960;28;20960;-88
2023/04/09 04:42:09;;;;;;;11.20;6.93;;;11.80;56.10;;;;;;5078137;28;20450;-86
2023/04/09 04:44:37;;;;;;;11.27;7.10;;;11.80;56.10;;;;;;5082144;27;20466;-87
2023/04/09 04:47:13;;;;;;;12.30;7.60;;;11.80;56.00;;;;;;5068573;28;20447;-86
2023/04/09 04:49:40;;;;;;;11.67;8.23;;;11.70;56.10;;;;;;5056423;28;20475;-88
2023/04/09 04:52:09;;;;;;;10.80;7.07;;;11.70;56.10;;;;;;5065907;28;20458;-86
2023/04/09 04:54:39;;;;;;;11.93;7.13;;;11.70;56.20;;;;;;5051138;28;20431;-88
2023/04/09 04:57:06;;;;;;;10.53;6.20;;;11.60;56.30;;;;;;5051708;28;20505;-88
2023/04/09 04:59:40;;;;;;;11.40;6.53;;;11.70;56.30;;;;;;5074834;28;20889;-87
2023/04/09 05:02:09;;;;;;;11.33;7.47;;;11.70;56.10;;;;;;5051692;28;20443;-87
2023/04/09 05:04:49;;;;;;;17.40;7.43;;;11.70;56.20;;;;;;5093804;28;20471;-88
2023/04/09 05:07:18;;;;;;;13.17;7.57;;;11.70;56.20;;;;;;5058682;28;20460;-88
2023/04/09 05:09:51;;;;;;;17.77;7.97;;;11.60;56.40;;;;;;5094527;28;20471;-90
2023/04/09 05:12:19;;;;;;;16.90;9.10;;;11.70;56.50;;;;;;5100781;28;20451;-87
2023/04/09 05:14:50;;;;;;;14.50;7.47;;;11.70;56.30;;;;;;5061725;28;20458;-87
2023/04/09 05:17:18;;;;;;;13.53;7.40;;;11.70;56.20;;;;;;5077746;28;20446;-86
2023/04/09 05:19:52;;;;;;;17.93;8.77;;;11.70;56.30;;;;;;5089650;28;20479;-87
2023/04/09 05:22:23;;;;;;;14.60;7.63;;;11.70;56.40;;;;;;5058184;28;20447;-88
2023/04/09 05:24:51;;;;;;;13.70;7.03;;;11.70;56.40;;;;;;5049549;28;20475;-87
2023/04/09 05:27:19;;;;;;;15.37;8.77;;;11.70;56.50;;;;;;5047381;28;20443;-86
2023/04/09 05:29:49;;;;;;;13.90;8.67;;;11.70;56.50;;;;;;5077330;28;20466;-88
2023/04/09 05:32:17;;;;;;;15.20;6.93;;;11.80;56.40;;;;;;5053886;28;20522;-87
2023/04/09 05:34:44;;;;;;;17.80;9.73;;;11.80;56.20;;;;;;5096318;28;20469;-88
2023/04/09 05:37:13;;;;;;;13.77;7.63;;;11.70;56.50;;;;;;5067778;28;20465;-88
2023/04/09 05:39:41;;;;;;;12.43;8.10;;;11.50;56.80;;;;;;5077000;28;20540;-87
2023/04/09 05:42:09;;;;;;;13.70;7.90;;;11.60;56.70;;;;;;5086350;28;20458;-87
2023/04/09 05:44:41;;;;;;;14.53;8.50;;;11.70;56.70;;;;;;5068334;28;20535;-88
2023/04/09 05:47:16;;;;;;;11.03;8.27;;;11.80;56.30;;;;;;5086829;28;20455;-88
2023/04/09 05:50:04;;;;;;;12.33;8.43;;;11.90;56.20;;;;;;5097372;27;20478;-88
2023/04/09 05:52:33;;;;;;;11.67;8.30;;;12.00;56.10;;;;;;5066036;27;20542;-88
2023/04/09 05:55:00;;;;;;;14.17;8.23;;;11.90;55.80;;;;;;5099945;28;20459;-88
2023/04/09 05:57:40;;;;;;;13.63;8.50;;;11.80;56.20;;;;;;5061801;28;20431;-88
2023/04/09 06:00:08;;;;;;;15.80;10.50;;;11.70;56.50;;;;;;5052273;28;20491;-87
2023/04/09 06:02:44;;;;;;;20.37;11.00;;;11.50;56.90;;;;;;5067553;27;20446;-86
2023/04/09 06:05:11;;;;;;;22.40;10.47;;;11.40;57.60;;;;;;5082919;28;20851;-86
2023/04/09 06:07:40;;;;;;;15.40;9.27;;;11.50;57.60;;;;;;5089368;28;20536;-86
2023/04/09 06:10:08;;;;;;;13.97;9.13;;;11.80;57.40;;;;;;5072658;28;20567;-86
2023/04/09 06:12:35;;;;;;;14.00;8.63;;;11.90;57.00;;;;;;5055148;28;20465;-85
2023/04/09 06:15:04;;;;;;;14.27;8.40;;;11.80;56.80;;;;;;5078527;28;20457;-86
2023/04/09 06:17:31;;;;;;;12.80;8.10;;;11.70;57.30;;;;;;5091454;27;20476;-85
2023/04/09 06:19:58;;;;;;;24.30;13.93;;;11.60;57.60;;;;;;5089736;27;20463;-85
2023/04/09 06:22:25;;;;;;;20.47;11.47;;;11.70;57.80;;;;;;5107881;27;21267;-86
2023/04/09 06:24:54;;;;;;;13.03;7.70;;;11.80;57.70;;;;;;5073387;28;20522;-85
2023/04/09 06:27:21;;;;;;;17.40;9.23;;;11.80;57.70;;;;;;5090771;28;21445;-87
2023/04/09 06:29:48;;;;;;;16.37;10.60;;;11.70;57.60;;;;;;5054112;28;20474;-85
2023/04/09 06:32:15;;;;;;;18.00;10.40;;;11.80;57.80;;;;;;5081343;28;20453;-86
2023/04/09 06:34:42;;;;;;;17.87;9.30;;;11.80;57.80;;;;;;5072641;28;20944;-87
2023/04/09 06:37:09;;;;;;;20.10;11.77;;;11.70;57.90;;;;;;5070873;28;20445;-86
2023/04/09 06:39:37;;;;;;;22.10;11.20;;;11.70;57.90;;;;;;5085346;27;20479;-87
2023/04/09 06:42:05;;;;;;;20.67;12.00;;;11.90;57.50;;;;;;5071517;28;20446;-88
2023/04/09 06:44:39;;;;;;;21.23;10.80;;;11.90;57.20;;;;;;5073063;28;20479;-87
2023/04/09 06:47:07;;;;;;;20.60;10.67;;;11.90;57.10;;;;;;5071910;28;20531;-86
2023/04/09 06:49:34;;;;;;;17.97;10.20;;;11.80;57.20;;;;;;5087996;28;20959;-86
2023/04/09 06:52:02;;;;;;;16.17;10.60;;;11.80;57.20;;;;;;5090442;28;20477;-85
2023/04/09 06:54:29;;;;;;;18.17;10.90;;;12.00;57.30;;;;;;5088635;28;20443;-86
2023/04/09 06:56:56;;;;;;;18.50;10.23;;;12.00;57.20;;;;;;5059509;28;20440;-86
2023/04/09 06:59:24;;;;;;;23.13;12.93;;;12.10;57.10;;;;;;5090958;28;20447;-86
2023/04/09 07:01:51;;;;;;;20.43;11.23;;;12.30;57.10;;;;;;5059005;28;20452;-87
2023/04/09 07:04:18;;;;;;;21.00;13.17;;;12.20;57.00;;;;;;5107578;27;20451;-86
2023/04/09 07:06:45;;;;;;;20.53;12.57;;;12.10;56.90;;;;;;5089321;27;20479;-85
2023/04/09 07:09:12;;;;;;;22.60;13.07;;;12.30;57.00;;;;;;5072993;28;20542;-85
2023/04/09 07:11:40;;;;;;;21.43;13.77;;;12.40;55.80;;;;;;5070455;27;20459;-85
2023/04/09 07:14:07;;;;;;;25.53;13.00;;;12.40;56.00;;;;;;5090715;27;20440;-85
2023/04/09 07:16:35;;;;;;;21.93;12.57;;;12.60;55.30;;;;;;5053133;28;20959;-85
2023/04/09 07:19:02;;;;;;;20.63;12.80;;;12.70;55.50;;;;;;5091076;28;20461;-85
2023/04/09 07:21:29;;;;;;;21.43;12.53;;;12.80;54.50;;;;;;5088780;27;20466;-86
2023/04/09 07:23:56;;;;;;;22.50;13.97;;;13.00;54.80;;;;;;5072853;28;21043;-85
2023/04/09 07:26:23;;;;;;;31.63;16.97;;;13.20;54.10;;;;;;5066221;28;20481;-86
2023/04/09 07:28:50;;;;;;;31.37;14.70;;;13.20;52.70;;;;;;5054316;28;20545;-86
2023/04/09 07:31:17;;;;;;;27.67;15.93;;;13.20;53.30;;;;;;5073450;28;21161;-86
2023/04/09 07:33:46;;;;;;;33.93;16.10;;;13.20;53.50;;;;;;5085657;27;20527;-86
2023/04/09 07:36:13;;;;;;;22.33;13.37;;;13.30;53.60;;;;;;5089484;28;20445;-85
2023/04/09 07:38:41;;;;;;;23.23;13.63;;;13.40;53.10;;;;;;5067835;28;20543;-86
2023/04/09 07:41:11;;;;;;;25.60;16.00;;;13.50;53.60;;;;;;5090343;28;20470;-85
2023/04/09 07:43:39;;;;;;;26.90;14.90;;;13.60;52.90;;;;;;5089072;28;20507;-87
2023/04/09 07:46:06;;;;;;;21.87;12.70;;;13.60;52.60;;;;;;5105000;27;21215;-86
2023/04/09 07:48:33;;;;;;;23.07;13.37;;;13.50;52.50;;;;;;5068926;28;20459;-87
2023/04/09 07:51:02;;;;;;;22.87;13.10;;;13.70;53.20;;;;;;5062065;28;21038;-87
2023/04/09 07:53:29;;;;;;;26.53;14.50;;;13.80;52.40;;;;;;5088662;27;20443;-84
2023/04/09 07:55:57;;;;;;;21.97;13.30;;;13.70;52.50;;;;;;5088247;28;20446;-86
2023/04/09 07:58:24;;;;;;;22.80;13.83;;;13.80;52.30;;;;;;5092467;28;20443;-86
2023/04/09 08:00:51;;;;;;;22.47;12.00;;;13.80;51.70;;;;;;5071467;28;21064;-86
2023/04/09 08:03:18;;;;;;;31.97;15.83;;;13.80;52.00;;;;;;5082012;28;20439;-86
2023/04/09 08:05:45;;;;;;;22.30;13.57;;;13.70;51.80;;;;;;5039530;28;20463;-86
2023/04/09 08:08:14;;;;;;;17.90;11.40;;;13.70;52.30;;;;;;5052882;28;20475;-85
2023/04/09 08:10:41;;;;;;;31.00;15.67;;;13.80;52.10;;;;;;5068232;28;20476;-87
2023/04/09 08:13:08;;;;;;;22.20;13.90;;;13.70;51.00;;;;;;5068979;28;20451;-86
2023/04/09 08:15:35;;;;;;;27.40;14.20;;;13.90;52.00;;;;;;5104076;27;20452;-86
2023/04/09 08:18:02;;;;;;;21.03;12.63;;;13.90;51.70;;;;;;5090956;27;20572;-85
2023/04/09 08:20:31;;;;;;;20.60;12.40;;;14.00;51.60;;;;;;5078451;28;20998;-86
2023/04/09 08:22:59;;;;;;;22.40;13.00;;;14.10;51.10;;;;;;5081600;28;20451;-86
2023/04/09 08:25:27;;;;;;;19.83;11.93;;;14.30;50.60;;;;;;5107685;27;20448;-86
2023/04/09 08:27:54;;;;;;;23.03;12.70;;;14.10;50.40;;;;;;5070762;28;20454;-87
2023/04/09 08:30:21;;;;;;;20.43;12.33;;;13.90;51.10;;;;;;5071673;28;20984;-85
2023/04/09 08:32:48;;;;;;;22.03;13.33;;;13.80;51.50;;;;;;5060766;28;20452;-86
2023/04/09 08:35:16;;;;;;;19.67;13.00;;;13.80;51.70;;;;;;5071252;28;20465;-83
2023/04/09 08:37:43;;;;;;;26.33;14.83;;;14.00;52.20;;;;;;5078492;28;20458;-85
2023/04/09 08:40:11;;;;;;;21.77;12.23;;;14.10;51.60;;;;;;5079984;28;20469;-86
2023/04/09 08:42:45;;;;;;;20.17;12.30;;;14.10;50.80;;;;;;5052498;28;20817;-85
2023/04/09 08:45:13;;;;;;;19.60;11.70;;;14.30;51.00;;;;;;5069941;28;20463;-84
2023/04/09 08:47:42;;;;;;;20.90;11.83;;;14.30;50.80;;;;;;5087680;28;20840;-87
2023/04/09 08:50:10;;;;;;;21.60;13.20;;;14.40;50.10;;;;;;5100081;27;20460;-88
2023/04/09 08:52:37;;;;;;;18.20;11.53;;;14.70;50.40;;;;;;5085944;27;20435;-86
2023/04/09 08:55:04;;;;;;;19.70;11.80;;;14.90;49.70;;;;;;5088966;28;20579;-86
2023/04/09 08:57:37;;;;;;;19.77;12.13;;;14.90;49.40;;;;;;5105600;27;20492;-86
2023/04/09 09:00:07;;;;;;;19.80;12.10;;;14.90;49.10;;;;;;5073242;28;20530;-87
2023/04/09 09:02:35;;;;;;;17.97;11.40;;;14.90;48.20;;;;;;5087585;28;20447;-86
2023/04/09 09:05:02;;;;;;;16.40;11.33;;;14.90;48.70;;;;;;5056033;28;20446;-86
2023/04/09 09:07:29;;;;;;;17.73;10.90;;;15.00;48.20;;;;;;5090764;27;21164;-86
2023/04/09 09:09:58;;;;;;;25.73;16.53;;;14.80;48.00;;;;;;5092035;27;20457;-86
2023/04/09 09:12:36;;;;;;;18.10;12.23;;;14.70;48.00;;;;;;5073083;28;20455;-86
2023/04/09 09:15:24;;;;;;;16.77;11.23;;;14.70;47.70;;;;;;5082327;28;20459;-86
2023/04/09 09:17:54;;;;;;;17.50;11.67;;;14.80;48.40;;;;;;5107727;27;20443;-86
2023/04/09 09:20:22;;;;;;;18.00;11.27;;;15.10;48.20;;;;;;5105608;27;20459;-88
2023/04/09 09:22:50;;;;;;;17.37;10.80;;;15.50;47.10;;;;;;5077522;28;20979;-85
2023/04/09 09:25:22;;;;;;;17.27;11.27;;;15.50;46.20;;;;;;5059655;28;20454;-85
2023/04/09 09:27:49;;;;;;;18.10;11.90;;;15.50;46.70;;;;;;5081439;27;20471;-85
2023/04/09 09:30:22;;;;;;;19.00;12.47;;;15.30;46.90;;;;;;5091340;28;20459;-87
2023/04/09 09:32:52;;;;;;;18.00;11.53;;;15.20;47.20;;;;;;5090209;27;20458;-86
2023/04/09 09:35:19;;;;;;;18.13;11.17;;;15.10;47.70;;;;;;5105279;27;20459;-86
2023/04/09 09:37:47;;;;;;;17.70;11.43;;;15.50;46.60;;;;;;5075923;28;20455;-86
2023/04/09 09:40:27;;;;;;;14.43;10.13;;;15.80;46.40;;;;;;5072619;28;21347;-85
2023/04/09 09:42:55;;;;;;;15.27;10.20;;;16.00;44.70;;;;;;5061395;28;22384;-85
2023/04/09 09:45:24;;;;;;;15.83;11.07;;;16.00;45.00;;;;;;5091614;28;20509;-85
2023/04/09 09:47:52;;;;;;;17.80;10.43;;;16.10;45.30;;;;;;5093162;28;20470;-87
2023/04/09 09:50:20;;;;;;;17.17;11.90;;;16.10;44.50;;;;;;5094293;28;20468;-86
2023/04/09 09:52:47;;;;;;;20.20;13.10;;;15.80;45.30;;;;;;5084414;28;20805;-86
2023/04/09 09:55:17;;;;;;;16.23;10.50;;;15.90;44.90;;;;;;5077708;28;21003;-85
2023/04/09 09:57:47;;;;;;;14.93;9.97;;;16.10;45.30;;;;;;5078464;28;20454;-86
2023/04/09 10:00:15;;;;;;;14.90;10.50;;;16.20;44.60;;;;;;5094260;27;20482;-86
2023/04/09 10:02:52;;;;;;;19.83;11.27;;;16.50;44.20;;;;;;5092705;27;20439;-85
2023/04/09 10:05:23;;;;;;;14.80;10.13;;;16.50;43.40;;;;;;5108191;27;20435;-85
2023/04/09 10:07:51;;;;;;;16.87;11.67;;;16.40;43.40;;;;;;5061468;28;20494;-86
2023/04/09 10:10:18;;;;;;;15.13;10.40;;;16.40;43.70;;;;;;5051316;28;20987;-87
2023/04/09 10:12:46;;;;;;;15.83;11.60;;;16.40;43.70;;;;;;5063138;28;20462;-87
2023/04/09 10:15:13;;;;;;;15.23;10.57;;;16.60;43.60;;;;;;5051577;28;20794;-86
2023/04/09 10:17:40;;;;;;;21.00;13.40;;;16.70;43.80;;;;;;5092687;27;20437;-86
2023/04/09 10:20:14;;;;;;;16.90;11.10;;;16.80;43.20;;;;;;5092178;28;20470;-87
2023/04/09 10:22:46;;;;;;;15.73;10.73;;;16.70;43.20;;;;;;5090131;28;20450;-85
2023/04/09 10:25:13;;;;;;;16.03;9.60;;;16.60;42.90;;;;;;5055715;28;20447;-86
2023/04/09 10:27:41;;;;;;;14.80;10.23;;;16.30;43.00;;;;;;5081345;28;20464;-85
2023/04/09 10:30:09;;;;;;;12.80;9.47;;;16.30;42.80;;;;;;5094360;27;20668;-87
2023/04/09 10:32:36;;;;;;;11.20;8.90;;;16.20;42.10;;;;;;5068375;28;20454;-86
2023/04/09 10:35:04;;;;;;;13.50;9.13;;;16.30;42.10;;;;;;5094292;28;20538;-85
2023/04/09 10:37:35;;;;;;;15.30;9.70;;;16.30;42.50;;;;;;5086038;28;20454;-87
2023/04/09 10:40:04;;;;;;;15.40;9.30;;;16.30;41.80;;;;;;5058917;27;20451;-87
2023/04/09 10:42:37;;;;;;;13.67;9.37;;;16.60;40.30;;;;;;5082273;28;20447;-86
2023/04/09 10:45:10;;;;;;;11.90;9.83;;;17.00;38.60;;;;;;5072776;28;20538;-87
2023/04/09 10:47:38;;;;;;;13.37;9.57;;;17.20;38.90;;;;;;5093098;28;20566;-86
2023/04/09 10:50:16;;;;;;;12.50;8.97;;;17.30;38.90;;;;;;5074434;28;20856;-87
2023/04/09 10:52:45;;;;;;;12.97;8.77;;;17.30;38.80;;;;;;5049271;28;20955;-86
2023/04/09 10:55:32;;;;;;;15.93;10.10;;;17.10;39.60;;;;;;5067266;28;20479;-85
2023/04/09 10:57:59;;;;;;;12.20;9.10;;;17.30;39.90;;;;;;5075349;28;20444;-85
2023/04/09 11:00:26;;;;;;;12.90;9.60;;;17.50;40.00;;;;;;5095889;27;20471;-87
2023/04/09 11:03:19;;;;;;;14.20;9.10;;;17.40;38.60;;;;;;5057796;28;20428;-88
2023/04/09 11:05:51;;;;;;;12.43;8.90;;;17.30;38.40;;;;;;5050172;28;20570;-87
2023/04/09 11:08:20;;;;;;;10.70;8.23;;;16.90;39.60;;;;;;5099693;27;20454;-87
2023/04/09 11:10:48;;;;;;;11.07;8.80;;;17.00;39.00;;;;;;5066688;28;20452;-86
2023/04/09 11:13:16;;;;;;;10.83;8.10;;;17.00;38.80;;;;;;5053577;28;20466;-85
2023/04/09 11:15:44;;;;;;;12.87;8.83;;;17.30;39.80;;;;;;5077678;28;20480;-86
2023/04/09 11:18:14;;;;;;;12.30;8.67;;;17.70;39.00;;;;;;5069705;28;20439;-87
2023/04/09 11:20:42;;;;;;;10.93;8.07;;;17.80;37.90;;;;;;5077427;28;20558;-85
2023/04/09 11:23:10;;;;;;;11.03;7.73;;;17.80;37.90;;;;;;5074199;28;20488;-87
2023/04/09 11:25:38;;;;;;;12.90;8.63;;;17.90;37.30;;;;;;5093307;27;20439;-87
2023/04/09 11:28:07;;;;;;;12.00;7.30;;;17.70;37.30;;;;;;5076069;28;20548;-86
2023/04/09 11:30:34;;;;;;;11.90;7.97;;;17.70;38.00;;;;;;5107458;27;20463;-86
2023/04/09 11:33:01;;;;;;;11.07;7.90;;;18.00;37.80;;;;;;5067511;27;20448;-88
2023/04/09 11:35:29;;;;;;;9.20;7.17;;;18.10;37.00;;;;;;5076187;28;20474;-87
2023/04/09 11:37:56;;;;;;;9.63;7.50;;;18.40;37.10;;;;;;5106897;27;20557;-88
2023/04/09 11:40:25;;;;;;;10.00;7.57;;;18.50;35.80;;;;;;5075654;28;20477;-87
2023/04/09 11:42:55;;;;;;;10.43;7.10;;;18.40;35.30;;;;;;5072461;28;20439;-88
2023/04/09 11:45:24;;;;;;;11.50;8.17;;;18.20;36.70;;;;;;5086107;28;20536;-88
2023/04/09 11:47:52;;;;;;;10.27;7.07;;;18.00;36.00;;;;;;5065066;28;20482;-86
2023/04/09 11:50:20;;;;;;;9.07;6.47;;;18.20;36.70;;;;;;5051751;28;20483;-86
2023/04/09 11:52:48;;;;;;;7.80;5.47;;;18.40;35.00;;;;;;5063965;27;20543;-87
2023/04/09 11:55:24;;;;;;;6.83;5.50;;;18.70;34.10;;;;;;5076543;28;20570;-87
2023/04/09 11:57:56;;;;;;;6.67;5.90;;;19.10;33.50;;;;;;5091012;28;20448;-87
2023/04/09 12:00:24;;;;;;;6.07;5.30;;;19.40;32.50;;;;;;5060905;28;20495;-88
2023/04/09 12:02:59;;;;;;;6.10;5.23;;;20.00;32.50;;;;;;5075289;28;20459;-88
2023/04/09 12:05:29;;;;;;;7.50;5.50;;;20.10;30.70;;;;;;5065992;28;20512;-88
2023/04/09 12:07:59;;;;;;;7.80;5.97;;;19.70;30.00;;;;;;5078926;28;20470;-86
2023/04/09 12:10:30;;;;;;;6.80;5.40;;;19.00;29.80;;;;;;5072914;28;20475;-86
2023/04/09 12:13:03;;;;;;;6.67;5.80;;;18.40;32.70;;;;;;5073985;28;20507;-86
2023/04/09 12:15:33;;;;;;;8.67;6.67;;;18.40;32.30;;;;;;5094181;27;20454;-87
2023/04/09 12:18:00;;;;;;;8.47;6.70;;;18.60;33.30;;;;;;5088714;28;21036;-87
2023/04/09 12:20:32;;;;;;;8.80;5.90;;;18.70;32.10;;;;;;5055549;28;20456;-86
2023/04/09 12:23:02;;;;;;;7.27;6.10;;;18.90;31.20;;;;;;5058584;28;20439;-87
2023/04/09 12:25:30;;;;;;;8.47;6.60;;;18.70;32.50;;;;;;5079867;28;20447;-87
2023/04/09 12:27:57;;;;;;;7.83;5.73;;;18.90;32.90;;;;;;5092236;27;20476;-86
2023/04/09 12:30:26;;;;;;;7.07;6.20;;;18.80;32.50;;;;;;5047598;28;21004;-86
2023/04/09 12:32:54;;;;;;;7.47;5.97;;;18.70;31.40;;;;;;5074196;28;20447;-86
2023/04/09 12:35:22;;;;;;;9.07;5.97;;;18.80;32.10;;;;;;5094716;28;20447;-88
2023/04/09 12:37:49;;;;;;;8.67;5.87;;;18.90;32.60;;;;;;5087643;28;20450;-87
2023/04/09 12:40:17;;;;;;;7.80;5.90;;;19.20;32.40;;;;;;5072505;28;20462;-87
2023/04/09 12:42:45;;;;;;;8.03;5.90;;;19.50;32.60;;;;;;5051209;28;20949;-87
2023/04/09 12:45:14;;;;;;;7.20;6.27;;;19.80;30.00;;;;;;5091756;27;21019;-86